sensor_id;sensor_type;location;lat;lon;timestamp;temperature;humidity
25640;DHT22;13497;48.322;16.204;2023-03-04T00:02:20;1.20;99.90
25640;DHT22;13497;48.322;16.204;2023-03-04T00:04:45;1.20;99.90
25640;DHT22;13497;48.322;16.204;2023-03-04T00:07:11;1.20;99.90
25640;DHT22;13497;48.322;16.204;2023-03-04T00:09:43;1.30;99.90
25640;DHT22;13497;48.322;16.204;2023-03-04T00:12:08;1.40;99.90
25640;DHT22;13497;48.322;16.204;2023-03-04T00:14:34;1.30;99.90
25640;DHT22;13497;48.322;16.204;2023-03-04T00:17:00;1.30;99.90
25640;DHT22;13497;48.322;16.204;2023-03-04T00:19:28;1.30;99.90
25640;DHT22;13497;48.322;16.204;2023-03-04T00:21:53;1.30;99.90
25640;DHT22;13497;48.322;16.204;2023-03-04T00:24:19;1.20;99.90
25640;DHT22;13497;48.322;16.204;2023-03-04T00:26:44;1.20;99.90
25640;DHT22;13497;48.322;16.204;2023-03-04T00:29:11;1.20;99.90
25640;DHT22;13497;48.322;16.204;2023-03-04T00:31:36;1.20;99.90
25640;DHT22;13497;48.322;16.204;2023-03-04T00:34:02;1.10;99.90
25640;DHT22;13497;48.322;16.204;2023-03-04T00:36:27;1.00;99.90
25640;DHT22;13497;48.322;16.204;2023-03-04T00:38:53;1.00;99.90
25640;DHT22;13497;48.322;16.204;2023-03-04T00:41:19;0.90;99.90
25640;DHT22;13497;48.322;16.204;2023-03-04T00:43:45;0.80;99.90
25640;DHT22;13497;48.322;16.204;2023-03-04T00:46:11;0.70;99.90
25640;DHT22;13497;48.322;16.204;2023-03-04T00:48:36;0.60;99.90
25640;DHT22;13497;48.322;16.204;2023-03-04T00:51:03;0.60;99.90
25640;DHT22;13497;48.322;16.204;2023-03-04T00:53:29;0.60;99.90
25640;DHT22;13497;48.322;16.204;2023-03-04T00:55:55;0.60;99.90
25640;DHT22;13497;48.322;16.204;2023-03-04T00:58:20;0.60;99.90
25640;DHT22;13497;48.322;16.204;2023-03-04T01:00:46;0.70;99.90
25640;DHT22;13497;48.322;16.204;2023-03-04T01:03:12;0.70;99.90
25640;DHT22;13497;48.322;16.204;2023-03-04T01:05:38;0.70;99.90
25640;DHT22;13497;48.322;16.204;2023-03-04T01:08:04;0.60;99.90
25640;DHT22;13497;48.322;16.204;2023-03-04T01:10:30;0.60;99.90
25640;DHT22;13497;48.322;16.204;2023-03-04T01:12:56;0.60;99.90
25640;DHT22;13497;48.322;16.204;2023-03-04T01:15:22;0.60;99.90
25640;DHT22;13497;48.322;16.204;2023-03-04T01:17:47;0.60;99.90
25640;DHT22;13497;48.322;16.204;2023-03-04T01:20:13;0.60;99.90
25640;DHT22;13497;48.322;16.204;2023-03-04T01:22:39;0.60;99.90
25640;DHT22;13497;48.322;16.204;2023-03-04T01:25:05;0.50;99.90
25640;DHT22;13497;48.322;16.204;2023-03-04T01:27:31;0.50;99.90
25640;DHT22;13497;48.322;16.204;2023-03-04T01:29:57;0.40;99.90
25640;DHT22;13497;48.322;16.204;2023-03-04T01:32:22;0.40;99.90
25640;DHT22;13497;48.322;16.204;2023-03-04T01:34:48;0.40;99.90
25640;DHT22;13497;48.322;16.204;2023-03-04T01:37:14;0.40;99.90
25640;DHT22;13497;48.322;16.204;2023-03-04T01:39:39;0.40;99.90
25640;DHT22;13497;48.322;16.204;2023-03-04T01:42:05;0.50;99.90
25640;DHT22;13497;48.322;16.204;2023-03-04T01:44:36;0.50;99.90
25640;DHT22;13497;48.322;16.204;2023-03-04T01:47:01;0.50;99.90
25640;DHT22;13497;48.322;16.204;2023-03-04T01:49:27;0.50;99.90
25640;DHT22;13497;48.322;16.204;2023-03-04T01:51:53;0.50;99.90
25640;DHT22;13497;48.322;16.204;2023-03-04T01:54:21;0.50;99.90
25640;DHT22;13497;48.322;16.204;2023-03-04T01:56:48;0.40;99.90
25640;DHT22;13497;48.322;16.204;2023-03-04T01:59:19;0.40;99.90
25640;DHT22;13497;48.322;16.204;2023-03-04T02:01:50;0.30;99.90
25640;DHT22;13497;48.322;16.204;2023-03-04T02:04:19;0.30;99.90
25640;DHT22;13497;48.322;16.204;2023-03-04T02:06:46;0.20;99.90
25640;DHT22;13497;48.322;16.204;2023-03-04T02:09:13;0.30;99.90
25640;DHT22;13497;48.322;16.204;2023-03-04T02:11:39;0.30;99.90
25640;DHT22;13497;48.322;16.204;2023-03-04T02:14:05;0.30;99.90
25640;DHT22;13497;48.322;16.204;2023-03-04T02:16:31;0.20;99.90
25640;DHT22;13497;48.322;16.204;2023-03-04T02:18:58;0.20;99.90
25640;DHT22;13497;48.322;16.204;2023-03-04T02:21:32;0.20;99.90
25640;DHT22;13497;48.322;16.204;2023-03-04T02:26:29;0.10;99.90
25640;DHT22;13497;48.322;16.204;2023-03-04T02:28:57;0.20;99.90
25640;DHT22;13497;48.322;16.204;2023-03-04T02:31:30;0.20;99.90
25640;DHT22;13497;48.322;16.204;2023-03-04T02:34:02;0.20;99.90
25640;DHT22;13497;48.322;16.204;2023-03-04T02:36:29;0.20;99.90
25640;DHT22;13497;48.322;16.204;2023-03-04T02:38:58;0.20;99.90
25640;DHT22;13497;48.322;16.204;2023-03-04T02:41:28;0.20;99.90
25640;DHT22;13497;48.322;16.204;2023-03-04T02:43:54;0.10;99.90
25640;DHT22;13497;48.322;16.204;2023-03-04T02:46:21;0.10;99.90
25640;DHT22;13497;48.322;16.204;2023-03-04T02:48:48;0.10;99.90
25640;DHT22;13497;48.322;16.204;2023-03-04T02:51:15;0.10;99.90
25640;DHT22;13497;48.322;16.204;2023-03-04T02:53:40;0.20;99.90
25640;DHT22;13497;48.322;16.204;2023-03-04T02:56:06;0.20;99.90
25640;DHT22;13497;48.322;16.204;2023-03-04T02:58:32;0.10;99.90
25640;DHT22;13497;48.322;16.204;2023-03-04T03:00:58;0.10;99.90
25640;DHT22;13497;48.322;16.204;2023-03-04T03:03:24;0.20;99.90
25640;DHT22;13497;48.322;16.204;2023-03-04T03:05:49;0.10;99.90
25640;DHT22;13497;48.322;16.204;2023-03-04T03:08:15;0.10;99.90
25640;DHT22;13497;48.322;16.204;2023-03-04T03:10:41;0.10;99.90
25640;DHT22;13497;48.322;16.204;2023-03-04T03:13:07;0.20;99.90
25640;DHT22;13497;48.322;16.204;2023-03-04T03:15:33;0.10;99.90
25640;DHT22;13497;48.322;16.204;2023-03-04T03:17:58;0.10;99.90
25640;DHT22;13497;48.322;16.204;2023-03-04T03:20:24;0.00;99.90
25640;DHT22;13497;48.322;16.204;2023-03-04T03:22:49;0.00;99.90
25640;DHT22;13497;48.322;16.204;2023-03-04T03:25:15;0.20;99.90
25640;DHT22;13497;48.322;16.204;2023-03-04T03:27:41;0.10;99.90
25640;DHT22;13497;48.322;16.204;2023-03-04T03:30:10;0.20;99.90
25640;DHT22;13497;48.322;16.204;2023-03-04T03:32:36;0.20;99.90
25640;DHT22;13497;48.322;16.204;2023-03-04T03:35:02;0.20;99.90
25640;DHT22;13497;48.322;16.204;2023-03-04T03:37:27;0.10;99.90
25640;DHT22;13497;48.322;16.204;2023-03-04T03:39:53;0.10;99.90
25640;DHT22;13497;48.322;16.204;2023-03-04T03:42:19;0.10;99.90
25640;DHT22;13497;48.322;16.204;2023-03-04T03:44:44;0.20;99.90
25640;DHT22;13497;48.322;16.204;2023-03-04T03:47:10;0.20;99.90
25640;DHT22;13497;48.322;16.204;2023-03-04T03:49:36;0.30;99.90
25640;DHT22;13497;48.322;16.204;2023-03-04T03:52:02;0.30;99.90
25640;DHT22;13497;48.322;16.204;2023-03-04T03:54:27;0.30;99.90
25640;DHT22;13497;48.322;16.204;2023-03-04T03:56:53;0.20;99.90
25640;DHT22;13497;48.322;16.204;2023-03-04T03:59:19;0.30;99.90
25640;DHT22;13497;48.322;16.204;2023-03-04T04:01:44;0.40;99.90
25640;DHT22;13497;48.322;16.204;2023-03-04T04:04:10;0.60;99.90
25640;DHT22;13497;48.322;16.204;2023-03-04T04:06:36;0.80;99.90
25640;DHT22;13497;48.322;16.204;2023-03-04T04:09:02;0.90;99.90
25640;DHT22;13497;48.322;16.204;2023-03-04T04:11:27;0.90;99.90
25640;DHT22;13497;48.322;16.204;2023-03-04T04:13:53;1.00;99.90
25640;DHT22;13497;48.322;16.204;2023-03-04T04:16:19;1.00;99.90
25640;DHT22;13497;48.322;16.204;2023-03-04T04:18:44;1.00;99.90
25640;DHT22;13497;48.322;16.204;2023-03-04T04:21:10;1.10;99.90
25640;DHT22;13497;48.322;16.204;2023-03-04T04:23:35;1.20;99.90
25640;DHT22;13497;48.322;16.204;2023-03-04T04:26:01;1.20;99.90
25640;DHT22;13497;48.322;16.204;2023-03-04T04:28:27;1.20;99.90
25640;DHT22;13497;48.322;16.204;2023-03-04T04:30:52;1.20;99.90
25640;DHT22;13497;48.322;16.204;2023-03-04T04:33:18;1.30;99.90
25640;DHT22;13497;48.322;16.204;2023-03-04T04:35:44;1.40;99.90
25640;DHT22;13497;48.322;16.204;2023-03-04T04:38:09;1.40;99.90
25640;DHT22;13497;48.322;16.204;2023-03-04T04:40:35;1.40;99.90
25640;DHT22;13497;48.322;16.204;2023-03-04T04:43:01;1.40;99.90
25640;DHT22;13497;48.322;16.204;2023-03-04T04:45:27;1.40;99.90
25640;DHT22;13497;48.322;16.204;2023-03-04T04:47:54;1.40;99.90
25640;DHT22;13497;48.322;16.204;2023-03-04T04:50:22;1.40;99.90
25640;DHT22;13497;48.322;16.204;2023-03-04T04:52:48;1.40;99.90
25640;DHT22;13497;48.322;16.204;2023-03-04T04:55:13;1.40;99.90
25640;DHT22;13497;48.322;16.204;2023-03-04T04:57:39;1.40;99.90
25640;DHT22;13497;48.322;16.204;2023-03-04T05:00:06;1.40;99.90
25640;DHT22;13497;48.322;16.204;2023-03-04T05:02:32;1.50;99.90
25640;DHT22;13497;48.322;16.204;2023-03-04T05:05:05;1.50;99.90
25640;DHT22;13497;48.322;16.204;2023-03-04T05:07:32;1.50;99.90
25640;DHT22;13497;48.322;16.204;2023-03-04T05:09:58;1.50;99.90
25640;DHT22;13497;48.322;16.204;2023-03-04T05:12:24;1.60;99.90
25640;DHT22;13497;48.322;16.204;2023-03-04T05:14:49;1.60;99.90
25640;DHT22;13497;48.322;16.204;2023-03-04T05:17:15;1.60;99.90
25640;DHT22;13497;48.322;16.204;2023-03-04T05:19:41;1.60;99.90
25640;DHT22;13497;48.322;16.204;2023-03-04T05:22:06;1.70;99.90
25640;DHT22;13497;48.322;16.204;2023-03-04T05:24:32;1.80;99.90
25640;DHT22;13497;48.322;16.204;2023-03-04T05:27:00;1.80;99.90
25640;DHT22;13497;48.322;16.204;2023-03-04T05:29:25;1.80;99.90
25640;DHT22;13497;48.322;16.204;2023-03-04T05:31:51;1.90;99.90
25640;DHT22;13497;48.322;16.204;2023-03-04T05:34:17;1.90;99.90
25640;DHT22;13497;48.322;16.204;2023-03-04T05:36:43;1.90;99.90
25640;DHT22;13497;48.322;16.204;2023-03-04T05:39:09;2.00;99.90
25640;DHT22;13497;48.322;16.204;2023-03-04T05:41:34;2.00;99.90
25640;DHT22;13497;48.322;16.204;2023-03-04T05:44:00;2.00;99.90
25640;DHT22;13497;48.322;16.204;2023-03-04T05:46:26;2.00;99.90
25640;DHT22;13497;48.322;16.204;2023-03-04T05:48:53;2.00;99.90
25640;DHT22;13497;48.322;16.204;2023-03-04T05:51:19;2.00;99.90
25640;DHT22;13497;48.322;16.204;2023-03-04T05:53:45;2.00;99.90
25640;DHT22;13497;48.322;16.204;2023-03-04T05:56:16;2.10;99.90
25640;DHT22;13497;48.322;16.204;2023-03-04T05:58:43;2.10;99.90
25640;DHT22;13497;48.322;16.204;2023-03-04T06:01:09;2.20;99.90
25640;DHT22;13497;48.322;16.204;2023-03-04T06:03:35;2.20;99.90
25640;DHT22;13497;48.322;16.204;2023-03-04T06:06:00;2.30;99.90
25640;DHT22;13497;48.322;16.204;2023-03-04T06:08:26;2.30;99.90
25640;DHT22;13497;48.322;16.204;2023-03-04T06:10:54;2.30;99.90
25640;DHT22;13497;48.322;16.204;2023-03-04T06:13:20;2.20;99.90
25640;DHT22;13497;48.322;16.204;2023-03-04T06:15:46;2.30;99.90
25640;DHT22;13497;48.322;16.204;2023-03-04T06:18:12;2.30;99.90
25640;DHT22;13497;48.322;16.204;2023-03-04T06:20:38;2.30;99.90
25640;DHT22;13497;48.322;16.204;2023-03-04T06:23:04;2.40;99.90
25640;DHT22;13497;48.322;16.204;2023-03-04T06:25:30;2.50;99.90
25640;DHT22;13497;48.322;16.204;2023-03-04T06:27:56;2.50;99.90
25640;DHT22;13497;48.322;16.204;2023-03-04T06:30:22;2.60;99.90
25640;DHT22;13497;48.322;16.204;2023-03-04T06:32:48;2.70;99.90
25640;DHT22;13497;48.322;16.204;2023-03-04T06:35:15;2.80;99.90
25640;DHT22;13497;48.322;16.204;2023-03-04T06:37:42;2.90;99.90
25640;DHT22;13497;48.322;16.204;2023-03-04T06:40:08;3.00;99.90
25640;DHT22;13497;48.322;16.204;2023-03-04T06:42:34;3.00;99.90
25640;DHT22;13497;48.322;16.204;2023-03-04T06:45:00;3.20;99.90
25640;DHT22;13497;48.322;16.204;2023-03-04T06:47:27;3.30;99.90
25640;DHT22;13497;48.322;16.204;2023-03-04T06:49:52;3.30;99.90
25640;DHT22;13497;48.322;16.204;2023-03-04T06:52:18;3.40;99.90
25640;DHT22;13497;48.322;16.204;2023-03-04T06:54:44;3.60;99.90
25640;DHT22;13497;48.322;16.204;2023-03-04T06:57:09;3.60;99.90
25640;DHT22;13497;48.322;16.204;2023-03-04T06:59:35;3.70;99.90
25640;DHT22;13497;48.322;16.204;2023-03-04T07:02:01;3.90;99.90
25640;DHT22;13497;48.322;16.204;2023-03-04T07:04:27;4.00;99.90
25640;DHT22;13497;48.322;16.204;2023-03-04T07:06:52;4.10;99.90
25640;DHT22;13497;48.322;16.204;2023-03-04T07:09:18;4.30;99.90
25640;DHT22;13497;48.322;16.204;2023-03-04T07:11:44;4.40;99.90
25640;DHT22;13497;48.322;16.204;2023-03-04T07:14:10;4.60;99.90
25640;DHT22;13497;48.322;16.204;2023-03-04T07:16:36;4.70;99.90
25640;DHT22;13497;48.322;16.204;2023-03-04T07:19:01;4.90;99.90
25640;DHT22;13497;48.322;16.204;2023-03-04T07:21:27;5.00;99.90
25640;DHT22;13497;48.322;16.204;2023-03-04T07:23:53;5.10;99.90
25640;DHT22;13497;48.322;16.204;2023-03-04T07:26:19;5.30;99.90
25640;DHT22;13497;48.322;16.204;2023-03-04T07:28:45;5.40;99.90
25640;DHT22;13497;48.322;16.204;2023-03-04T07:31:28;5.50;99.90
25640;DHT22;13497;48.322;16.204;2023-03-04T07:34:00;5.60;99.90
25640;DHT22;13497;48.322;16.204;2023-03-04T07:36:26;5.70;99.90
25640;DHT22;13497;48.322;16.204;2023-03-04T07:38:53;5.80;99.90
25640;DHT22;13497;48.322;16.204;2023-03-04T07:41:24;5.90;99.90
25640;DHT22;13497;48.322;16.204;2023-03-04T07:43:50;6.00;99.90
25640;DHT22;13497;48.322;16.204;2023-03-04T07:46:17;6.10;99.90
25640;DHT22;13497;48.322;16.204;2023-03-04T07:48:43;6.20;99.90
25640;DHT22;13497;48.322;16.204;2023-03-04T07:51:15;6.20;99.90
25640;DHT22;13497;48.322;16.204;2023-03-04T07:53:43;6.30;99.90
25640;DHT22;13497;48.322;16.204;2023-03-04T07:56:15;6.40;99.90
25640;DHT22;13497;48.322;16.204;2023-03-04T07:58:41;6.50;99.90
25640;DHT22;13497;48.322;16.204;2023-03-04T08:01:14;6.50;99.90
25640;DHT22;13497;48.322;16.204;2023-03-04T08:03:40;6.60;99.90
25640;DHT22;13497;48.322;16.204;2023-03-04T08:06:10;6.60;99.90
25640;DHT22;13497;48.322;16.204;2023-03-04T08:08:37;6.70;99.90
25640;DHT22;13497;48.322;16.204;2023-03-04T08:11:07;6.80;99.90
25640;DHT22;13497;48.322;16.204;2023-03-04T08:13:34;6.90;99.90
25640;DHT22;13497;48.322;16.204;2023-03-04T08:16:00;7.00;99.90
25640;DHT22;13497;48.322;16.204;2023-03-04T08:18:26;7.00;99.90
25640;DHT22;13497;48.322;16.204;2023-03-04T08:20:52;7.10;99.90
25640;DHT22;13497;48.322;16.204;2023-03-04T08:23:18;7.20;99.90
25640;DHT22;13497;48.322;16.204;2023-03-04T08:25:45;7.20;99.90
25640;DHT22;13497;48.322;16.204;2023-03-04T08:28:11;7.20;99.90
25640;DHT22;13497;48.322;16.204;2023-03-04T08:30:38;7.30;99.90
25640;DHT22;13497;48.322;16.204;2023-03-04T08:33:04;7.20;99.90
25640;DHT22;13497;48.322;16.204;2023-03-04T08:35:30;7.30;99.90
25640;DHT22;13497;48.322;16.204;2023-03-04T08:37:55;7.30;99.90
25640;DHT22;13497;48.322;16.204;2023-03-04T08:40:21;7.40;99.90
25640;DHT22;13497;48.322;16.204;2023-03-04T08:42:47;7.40;99.90
25640;DHT22;13497;48.322;16.204;2023-03-04T08:45:13;7.50;99.90
25640;DHT22;13497;48.322;16.204;2023-03-04T08:47:38;7.60;99.90
25640;DHT22;13497;48.322;16.204;2023-03-04T08:50:06;7.70;99.90
25640;DHT22;13497;48.322;16.204;2023-03-04T08:52:31;7.60;99.90
25640;DHT22;13497;48.322;16.204;2023-03-04T08:54:57;7.60;99.90
25640;DHT22;13497;48.322;16.204;2023-03-04T08:57:23;7.70;99.90
25640;DHT22;13497;48.322;16.204;2023-03-04T08:59:48;7.80;99.90
25640;DHT22;13497;48.322;16.204;2023-03-04T09:02:14;7.80;99.90
25640;DHT22;13497;48.322;16.204;2023-03-04T09:04:44;7.80;99.70
25640;DHT22;13497;48.322;16.204;2023-03-04T09:07:10;7.90;98.80
25640;DHT22;13497;48.322;16.204;2023-03-04T09:09:35;8.00;98.60
25640;DHT22;13497;48.322;16.204;2023-03-04T09:12:01;8.00;97.70
25640;DHT22;13497;48.322;16.204;2023-03-04T09:14:27;8.10;98.20
25640;DHT22;13497;48.322;16.204;2023-03-04T09:16:53;8.10;98.10
25640;DHT22;13497;48.322;16.204;2023-03-04T09:19:18;8.20;97.60
25640;DHT22;13497;48.322;16.204;2023-03-04T09:21:44;8.30;97.60
25640;DHT22;13497;48.322;16.204;2023-03-04T09:24:10;8.30;96.90
25640;DHT22;13497;48.322;16.204;2023-03-04T09:26:35;8.30;97.10
25640;DHT22;13497;48.322;16.204;2023-03-04T09:29:02;8.40;97.20
25640;DHT22;13497;48.322;16.204;2023-03-04T09:31:29;8.40;96.60
25640;DHT22;13497;48.322;16.204;2023-03-04T09:33:57;8.40;96.50
25640;DHT22;13497;48.322;16.204;2023-03-04T09:36:23;8.40;96.80
25640;DHT22;13497;48.322;16.204;2023-03-04T09:38:48;8.50;96.60
25640;DHT22;13497;48.322;16.204;2023-03-04T09:41:26;8.70;96.70
25640;DHT22;13497;48.322;16.204;2023-03-04T09:43:55;8.70;95.70
25640;DHT22;13497;48.322;16.204;2023-03-04T09:46:40;8.70;95.20
25640;DHT22;13497;48.322;16.204;2023-03-04T09:49:15;8.70;94.80
25640;DHT22;13497;48.322;16.204;2023-03-04T09:51:52;8.60;95.10
25640;DHT22;13497;48.322;16.204;2023-03-04T09:54:49;8.70;94.80
25640;DHT22;13497;48.322;16.204;2023-03-04T10:05:14;9.10;94.20
25640;DHT22;13497;48.322;16.204;2023-03-04T10:07:42;9.20;94.10
25640;DHT22;13497;48.322;16.204;2023-03-04T10:10:18;9.30;94.10
25640;DHT22;13497;48.322;16.204;2023-03-04T10:12:47;9.40;93.20
25640;DHT22;13497;48.322;16.204;2023-03-04T10:15:22;9.30;92.80
25640;DHT22;13497;48.322;16.204;2023-03-04T10:17:57;9.20;92.90
25640;DHT22;13497;48.322;16.204;2023-03-04T10:20:37;9.30;93.30
25640;DHT22;13497;48.322;16.204;2023-03-04T10:23:10;9.40;93.40
25640;DHT22;13497;48.322;16.204;2023-03-04T10:25:41;9.50;92.60
25640;DHT22;13497;48.322;16.204;2023-03-04T10:28:15;9.40;92.30
25640;DHT22;13497;48.322;16.204;2023-03-04T10:31:04;9.40;92.80
25640;DHT22;13497;48.322;16.204;2023-03-04T10:33:33;9.40;92.40
25640;DHT22;13497;48.322;16.204;2023-03-04T10:38:44;9.60;92.10
25640;DHT22;13497;48.322;16.204;2023-03-04T10:41:14;9.60;91.80
25640;DHT22;13497;48.322;16.204;2023-03-04T10:43:43;9.70;91.70
25640;DHT22;13497;48.322;16.204;2023-03-04T10:46:14;9.80;92.10
25640;DHT22;13497;48.322;16.204;2023-03-04T10:48:42;10.00;92.00
25640;DHT22;13497;48.322;16.204;2023-03-04T10:51:21;10.00;91.10
25640;DHT22;13497;48.322;16.204;2023-03-04T10:54:38;9.90;91.70
25640;DHT22;13497;48.322;16.204;2023-03-04T10:56:40;10.10;91.60
25640;DHT22;13497;48.322;16.204;2023-03-04T11:02:16;10.10;90.70
25640;DHT22;13497;48.322;16.204;2023-03-04T11:04:52;10.00;91.30
25640;DHT22;13497;48.322;16.204;2023-03-04T11:07:25;10.00;90.60
25640;DHT22;13497;48.322;16.204;2023-03-04T11:09:51;10.10;91.00
25640;DHT22;13497;48.322;16.204;2023-03-04T11:12:20;10.00;91.20
25640;DHT22;13497;48.322;16.204;2023-03-04T11:14:49;10.00;91.50
25640;DHT22;13497;48.322;16.204;2023-03-04T11:17:24;10.10;91.50
25640;DHT22;13497;48.322;16.204;2023-03-04T11:22:22;10.20;91.50
25640;DHT22;13497;48.322;16.204;2023-03-04T11:25:00;10.10;91.50
25640;DHT22;13497;48.322;16.204;2023-03-04T11:27:46;10.10;91.30
25640;DHT22;13497;48.322;16.204;2023-03-04T11:30:25;10.30;91.40
25640;DHT22;13497;48.322;16.204;2023-03-04T11:32:53;10.30;90.70
25640;DHT22;13497;48.322;16.204;2023-03-04T11:35:23;10.30;90.80
25640;DHT22;13497;48.322;16.204;2023-03-04T11:40:51;10.40;91.40
25640;DHT22;13497;48.322;16.204;2023-03-04T11:46:10;10.40;90.90
25640;DHT22;13497;48.322;16.204;2023-03-04T11:56:48;10.40;90.60
25640;DHT22;13497;48.322;16.204;2023-03-04T12:02:22;10.50;90.30
25640;DHT22;13497;48.322;16.204;2023-03-04T12:09:55;10.50;89.50
25640;DHT22;13497;48.322;16.204;2023-03-04T12:26:24;10.80;89.70
25640;DHT22;13497;48.322;16.204;2023-03-04T12:29:05;10.70;88.50
25640;DHT22;13497;48.322;16.204;2023-03-04T12:31:37;10.70;89.30
25640;DHT22;13497;48.322;16.204;2023-03-04T12:34:45;10.70;88.10
25640;DHT22;13497;48.322;16.204;2023-03-04T12:40:29;10.60;87.80
25640;DHT22;13497;48.322;16.204;2023-03-04T12:54:10;10.70;88.60
25640;DHT22;13497;48.322;16.204;2023-03-04T12:56:49;10.70;88.50
25640;DHT22;13497;48.322;16.204;2023-03-04T12:59:18;10.80;88.40
25640;DHT22;13497;48.322;16.204;2023-03-04T13:09:27;11.00;88.50
25640;DHT22;13497;48.322;16.204;2023-03-04T13:12:17;11.00;87.70
25640;DHT22;13497;48.322;16.204;2023-03-04T13:17:44;11.00;86.10
25640;DHT22;13497;48.322;16.204;2023-03-04T13:20:33;11.00;85.00
25640;DHT22;13497;48.322;16.204;2023-03-04T13:22:59;11.00;84.50
25640;DHT22;13497;48.322;16.204;2023-03-04T13:25:45;10.90;85.30
25640;DHT22;13497;48.322;16.204;2023-03-04T13:36:07;11.00;84.30
25640;DHT22;13497;48.322;16.204;2023-03-04T13:38:58;11.00;85.00
25640;DHT22;13497;48.322;16.204;2023-03-04T13:44:02;11.00;85.20
25640;DHT22;13497;48.322;16.204;2023-03-04T13:46:41;10.90;85.30
25640;DHT22;13497;48.322;16.204;2023-03-04T13:49:21;10.90;84.30
25640;DHT22;13497;48.322;16.204;2023-03-04T13:51:49;10.80;83.70
25640;DHT22;13497;48.322;16.204;2023-03-04T13:57:17;10.90;84.90
25640;DHT22;13497;48.322;16.204;2023-03-04T13:59:49;10.80;85.00
25640;DHT22;13497;48.322;16.204;2023-03-04T14:02:21;10.80;84.70
25640;DHT22;13497;48.322;16.204;2023-03-04T14:07:32;10.90;84.70
25640;DHT22;13497;48.322;16.204;2023-03-04T14:10:18;11.00;84.40
25640;DHT22;13497;48.322;16.204;2023-03-04T14:12:48;11.10;84.60
25640;DHT22;13497;48.322;16.204;2023-03-04T14:15:21;11.20;83.50
25640;DHT22;13497;48.322;16.204;2023-03-04T14:17:52;10.70;84.90
25640;DHT22;13497;48.322;16.204;2023-03-04T14:20:30;10.40;86.20
25640;DHT22;13497;48.322;16.204;2023-03-04T14:22:57;10.30;86.70
25640;DHT22;13497;48.322;16.204;2023-03-04T14:25:28;9.80;86.60
25640;DHT22;13497;48.322;16.204;2023-03-04T14:28:09;9.40;87.90
25640;DHT22;13497;48.322;16.204;2023-03-04T14:30:36;9.30;88.60
25640;DHT22;13497;48.322;16.204;2023-03-04T14:33:06;9.00;89.30
25640;DHT22;13497;48.322;16.204;2023-03-04T14:35:32;9.00;89.80
25640;DHT22;13497;48.322;16.204;2023-03-04T14:38:02;9.10;90.00
25640;DHT22;13497;48.322;16.204;2023-03-04T14:43:09;8.80;89.60
25640;DHT22;13497;48.322;16.204;2023-03-04T14:45:38;8.60;90.10
25640;DHT22;13497;48.322;16.204;2023-03-04T14:48:06;8.60;90.30
25640;DHT22;13497;48.322;16.204;2023-03-04T14:50:33;8.40;90.40
25640;DHT22;13497;48.322;16.204;2023-03-04T14:55:34;8.20;90.60
25640;DHT22;13497;48.322;16.204;2023-03-04T14:58:22;8.10;90.60
25640;DHT22;13497;48.322;16.204;2023-03-04T15:00:48;8.00;90.80
25640;DHT22;13497;48.322;16.204;2023-03-04T15:03:25;7.90;90.90
25640;DHT22;13497;48.322;16.204;2023-03-04T15:05:53;7.90;91.00
25640;DHT22;13497;48.322;16.204;2023-03-04T15:08:28;8.00;91.10
25640;DHT22;13497;48.322;16.204;2023-03-04T15:11:01;8.10;91.10
25640;DHT22;13497;48.322;16.204;2023-03-04T15:13:49;8.10;90.80
25640;DHT22;13497;48.322;16.204;2023-03-04T15:16:17;8.00;90.80
25640;DHT22;13497;48.322;16.204;2023-03-04T15:19:05;8.00;90.90
25640;DHT22;13497;48.322;16.204;2023-03-04T15:21:37;7.90;90.90
25640;DHT22;13497;48.322;16.204;2023-03-04T15:24:06;8.00;91.00
25640;DHT22;13497;48.322;16.204;2023-03-04T15:26:36;7.90;91.10
25640;DHT22;13497;48.322;16.204;2023-03-04T15:29:16;7.90;90.90
25640;DHT22;13497;48.322;16.204;2023-03-04T15:31:42;7.90;91.20
25640;DHT22;13497;48.322;16.204;2023-03-04T15:34:13;7.80;90.90
25640;DHT22;13497;48.322;16.204;2023-03-04T15:36:39;7.70;91.20
25640;DHT22;13497;48.322;16.204;2023-03-04T15:39:05;7.60;91.30
25640;DHT22;13497;48.322;16.204;2023-03-04T15:41:31;7.70;91.40
25640;DHT22;13497;48.322;16.204;2023-03-04T15:43:57;7.70;91.40
25640;DHT22;13497;48.322;16.204;2023-03-04T15:46:23;7.60;91.30
25640;DHT22;13497;48.322;16.204;2023-03-04T15:48:50;7.50;91.40
25640;DHT22;13497;48.322;16.204;2023-03-04T15:51:20;7.40;91.60
25640;DHT22;13497;48.322;16.204;2023-03-04T15:53:56;7.30;91.60
25640;DHT22;13497;48.322;16.204;2023-03-04T15:56:28;7.30;91.80
25640;DHT22;13497;48.322;16.204;2023-03-04T15:58:56;7.20;91.90
25640;DHT22;13497;48.322;16.204;2023-03-04T16:01:24;7.20;92.00
25640;DHT22;13497;48.322;16.204;2023-03-04T16:03:50;7.20;92.20
25640;DHT22;13497;48.322;16.204;2023-03-04T16:06:18;7.10;92.30
25640;DHT22;13497;48.322;16.204;2023-03-04T16:08:46;7.10;92.20
25640;DHT22;13497;48.322;16.204;2023-03-04T16:11:21;7.10;92.30
25640;DHT22;13497;48.322;16.204;2023-03-04T16:13:48;7.00;92.30
25640;DHT22;13497;48.322;16.204;2023-03-04T16:16:14;6.90;92.50
25640;DHT22;13497;48.322;16.204;2023-03-04T16:18:40;6.90;92.60
25640;DHT22;13497;48.322;16.204;2023-03-04T16:21:10;6.80;92.60
25640;DHT22;13497;48.322;16.204;2023-03-04T16:23:40;6.70;92.80
25640;DHT22;13497;48.322;16.204;2023-03-04T16:26:11;6.60;92.90
25640;DHT22;13497;48.322;16.204;2023-03-04T16:28:38;6.60;92.90
25640;DHT22;13497;48.322;16.204;2023-03-04T16:31:03;6.50;92.90
25640;DHT22;13497;48.322;16.204;2023-03-04T16:33:29;6.50;93.10
25640;DHT22;13497;48.322;16.204;2023-03-04T16:35:55;6.40;93.10
25640;DHT22;13497;48.322;16.204;2023-03-04T16:38:27;6.30;93.20
25640;DHT22;13497;48.322;16.204;2023-03-04T16:40:55;6.20;93.40
25640;DHT22;13497;48.322;16.204;2023-03-04T16:43:21;6.10;93.60
25640;DHT22;13497;48.322;16.204;2023-03-04T16:45:48;6.00;93.70
25640;DHT22;13497;48.322;16.204;2023-03-04T16:48:15;6.00;93.90
25640;DHT22;13497;48.322;16.204;2023-03-04T16:50:41;5.90;94.00
25640;DHT22;13497;48.322;16.204;2023-03-04T16:53:32;5.80;94.20
25640;DHT22;13497;48.322;16.204;2023-03-04T16:56:16;5.70;94.40
25640;DHT22;13497;48.322;16.204;2023-03-04T16:58:42;5.70;94.50
25640;DHT22;13497;48.322;16.204;2023-03-04T17:01:18;5.60;94.60
25640;DHT22;13497;48.322;16.204;2023-03-04T17:03:44;5.60;94.70
25640;DHT22;13497;48.322;16.204;2023-03-04T17:06:10;5.50;94.80
25640;DHT22;13497;48.322;16.204;2023-03-04T17:08:36;5.50;94.80
25640;DHT22;13497;48.322;16.204;2023-03-04T17:11:02;5.50;95.00
25640;DHT22;13497;48.322;16.204;2023-03-04T17:13:28;5.50;95.00
25640;DHT22;13497;48.322;16.204;2023-03-04T17:15:53;5.30;95.10
25640;DHT22;13497;48.322;16.204;2023-03-04T17:18:19;5.30;95.20
25640;DHT22;13497;48.322;16.204;2023-03-04T17:20:46;5.30;95.40